Time;durP1;ratioP1;P1;durP2;ratioP2;P2;SDS_P1;SDS_P2;PMS_P1;PMS_P2;Temp;Humidity;BMP_temperature;BMP_pressure;BME280_temperature;BME280_humidity;BME280_pressure;Samples;Min_cycle;Max_cycle;Signal;HPM_P1;HPM_P2
2022/08/23 00:01:55;;;;;;;5.63;5.22;;;23.10;53.60;;;;;;5028526;28;20204;-85
2022/08/23 00:04:24;;;;;;;6.88;6.25;;;23.00;53.80;;;;;;5030849;28;20188;-86
2022/08/23 00:06:51;;;;;;;5.78;5.38;;;23.10;54.00;;;;;;5029542;28;20197;-86
2022/08/23 00:09:19;;;;;;;6.03;5.63;;;23.10;54.10;;;;;;5031663;28;20228;-85
2022/08/23 00:11:52;;;;;;;6.10;5.60;;;23.00;54.20;;;;;;5027460;28;20208;-86
2022/08/23 00:14:26;;;;;;;6.05;5.55;;;22.90;55.00;;;;;;5021276;28;20181;-86
2022/08/23 00:16:53;;;;;;;6.22;5.63;;;22.80;55.10;;;;;;5029977;28;20252;-86
2022/08/23 00:19:21;;;;;;;6.60;5.78;;;22.60;55.90;;;;;;5027458;28;20226;-87
2022/08/23 00:21:48;;;;;;;6.05;5.60;;;22.30;56.30;;;;;;5026341;28;20181;-87
2022/08/23 00:24:15;;;;;;;5.22;4.82;;;22.40;56.00;;;;;;5033164;28;20189;-87
2022/08/23 00:26:49;;;;;;;6.10;5.60;;;22.40;56.20;;;;;;5027460;28;20197;-87
2022/08/23 00:29:15;;;;;;;6.05;5.65;;;22.50;56.50;;;;;;5024094;28;20695;-85
2022/08/23 00:31:41;;;;;;;5.90;5.38;;;22.60;56.20;;;;;;5026910;28;20180;-86
2022/08/23 00:34:07;;;;;;;9.75;5.70;;;22.50;56.80;;;;;;5026373;28;20620;-86
2022/08/23 00:36:33;;;;;;;6.30;5.80;;;22.30;57.40;;;;;;5028144;28;20276;-87
2022/08/23 00:38:58;;;;;;;6.25;5.65;;;22.40;57.20;;;;;;5030202;28;20227;-86
2022/08/23 00:41:31;;;;;;;6.28;5.68;;;22.30;57.20;;;;;;5025218;28;20227;-86
2022/08/23 00:49:32;;;;;;;6.03;5.53;;;22.30;57.40;;;;;;5029673;28;20512;-86
2022/08/23 00:52:30;;;;;;;6.25;5.75;;;22.20;57.60;;;;;;5023204;28;20208;-86
2022/08/23 00:54:57;;;;;;;6.28;5.78;;;22.20;58.90;;;;;;5026133;28;20200;-86
2022/08/23 00:57:24;;;;;;;6.47;5.70;;;22.10;59.00;;;;;;5027337;28;20185;-86
2022/08/23 00:59:49;;;;;;;6.03;5.60;;;22.10;59.40;;;;;;5027571;28;20692;-86
2022/08/23 01:02:15;;;;;;;6.05;5.60;;;22.30;58.10;;;;;;5033107;28;20288;-87
2022/08/23 01:04:58;;;;;;;6.35;5.85;;;22.40;58.00;;;;;;5023527;28;20673;-87
2022/08/23 01:07:35;;;;;;;6.88;6.28;;;22.50;57.30;;;;;;5025932;28;20318;-86
2022/08/23 01:10:08;;;;;;;6.38;5.88;;;22.60;56.90;;;;;;5028968;28;20247;-87
2022/08/23 01:12:45;;;;;;;6.43;5.93;;;22.70;57.10;;;;;;5031292;28;20311;-87
2022/08/23 01:15:20;;;;;;;5.63;5.22;;;22.70;57.10;;;;;;5026576;28;20259;-86
2022/08/23 01:17:53;;;;;;;5.97;5.47;;;22.50;57.50;;;;;;5024571;28;20263;-86
2022/08/23 01:20:23;;;;;;;6.15;5.72;;;22.30;58.80;;;;;;5030266;28;20255;-86
2022/08/23 01:22:59;;;;;;;6.43;5.70;;;22.00;59.80;;;;;;5009923;28;20288;-85
2022/08/23 01:25:29;;;;;;;6.22;5.63;;;22.00;60.20;;;;;;5030355;28;20196;-86
2022/08/23 01:27:56;;;;;;;5.82;5.35;;;22.10;59.20;;;;;;5024260;28;20209;-86
2022/08/23 01:30:25;;;;;;;7.22;5.80;;;22.20;59.20;;;;;;5026873;28;20233;-86
2022/08/23 01:32:55;;;;;;;5.72;5.32;;;22.20;58.90;;;;;;5025182;28;20181;-85
2022/08/23 01:35:29;;;;;;;5.72;5.28;;;22.20;59.10;;;;;;5029798;28;20679;-86
2022/08/23 01:37:56;;;;;;;6.15;5.72;;;22.20;58.60;;;;;;5031691;28;20260;-85
2022/08/23 01:40:21;;;;;;;6.00;5.60;;;22.30;58.30;;;;;;5027017;28;20251;-87
2022/08/23 01:42:48;;;;;;;6.40;5.90;;;22.20;58.20;;;;;;5025914;28;20200;-86
2022/08/23 01:45:14;;;;;;;6.05;5.53;;;22.20;58.90;;;;;;5024921;28;20376;-84
2022/08/23 01:47:40;;;;;;;6.32;5.72;;;22.10;59.10;;;;;;5030799;28;20235;-86
2022/08/23 01:50:07;;;;;;;5.93;5.43;;;22.10;59.40;;;;;;5028465;28;20659;-86
2022/08/23 01:52:35;;;;;;;5.95;5.55;;;22.00;59.40;;;;;;5020215;28;20185;-85
2022/08/23 01:55:02;;;;;;;6.82;6.32;;;21.80;61.00;;;;;;5031737;28;20193;-85
2022/08/23 01:57:28;;;;;;;6.30;5.90;;;21.60;62.30;;;;;;5030034;28;20423;-85
2022/08/23 01:59:55;;;;;;;5.60;5.15;;;21.50;62.10;;;;;;5031455;28;20209;-86
2022/08/23 02:02:21;;;;;;;6.28;5.78;;;21.50;62.30;;;;;;5030593;28;20623;-86
2022/08/23 02:04:46;;;;;;;5.72;5.32;;;21.40;62.20;;;;;;5035114;28;20199;-85
2022/08/23 02:07:12;;;;;;;5.90;5.50;;;21.40;62.10;;;;;;5032060;28;20258;-86
2022/08/23 02:09:38;;;;;;;6.40;5.90;;;21.50;61.80;;;;;;5033641;28;20295;-85
2022/08/23 02:12:04;;;;;;;6.25;5.78;;;21.60;61.40;;;;;;5033976;28;20318;-86
2022/08/23 02:14:30;;;;;;;5.65;5.22;;;21.60;61.40;;;;;;5028822;28;20653;-86
2022/08/23 02:16:57;;;;;;;5.43;5.05;;;21.60;61.00;;;;;;5029080;28;20236;-84
2022/08/23 02:19:23;;;;;;;6.32;5.75;;;21.60;61.00;;;;;;5028120;28;20187;-87
2022/08/23 02:21:49;;;;;;;6.20;5.70;;;21.70;60.80;;;;;;5039275;28;20181;-83
2022/08/23 02:24:21;;;;;;;6.55;5.75;;;21.70;60.70;;;;;;5047747;28;20261;-82
2022/08/23 02:26:50;;;;;;;5.60;5.20;;;21.60;60.70;;;;;;5049562;28;20172;-83
2022/08/23 02:29:19;;;;;;;5.82;5.43;;;21.60;61.30;;;;;;5047986;28;20229;-84
2022/08/23 02:31:46;;;;;;;5.85;5.43;;;21.60;60.90;;;;;;5029562;28;20236;-87
2022/08/23 02:34:14;;;;;;;5.95;5.50;;;21.60;60.70;;;;;;5032051;28;20195;-86
2022/08/23 02:36:40;;;;;;;5.30;4.97;;;21.50;61.20;;;;;;5027734;28;20205;-86
2022/08/23 02:39:07;;;;;;;8.90;6.25;;;21.40;61.70;;;;;;5029671;28;20740;-86
2022/08/23 02:41:33;;;;;;;5.90;5.40;;;21.40;61.80;;;;;;5031423;28;20228;-85
2022/08/23 02:43:59;;;;;;;5.50;5.10;;;21.30;62.30;;;;;;5042608;28;20208;-84
2022/08/23 02:46:25;;;;;;;6.25;5.65;;;21.20;62.40;;;;;;5037771;28;20340;-85
2022/08/23 02:48:51;;;;;;;6.15;5.75;;;21.20;62.70;;;;;;5029677;28;20262;-85
2022/08/23 02:51:17;;;;;;;5.82;5.43;;;21.10;63.40;;;;;;5028299;28;20232;-85
2022/08/23 02:53:43;;;;;;;5.65;5.25;;;21.10;63.50;;;;;;5027562;28;20227;-85
2022/08/23 02:56:10;;;;;;;5.70;5.20;;;21.10;63.10;;;;;;5029171;28;20197;-85
2022/08/23 02:58:35;;;;;;;7.10;6.40;;;21.10;63.00;;;;;;5031178;28;20242;-85
2022/08/23 03:01:01;;;;;;;6.20;5.80;;;21.20;62.40;;;;;;5030538;28;20308;-85
2022/08/23 03:03:28;;;;;;;5.70;5.30;;;21.10;62.40;;;;;;5030648;28;20179;-85
2022/08/23 03:05:54;;;;;;;5.72;5.30;;;21.10;62.50;;;;;;5030204;28;20203;-85
2022/08/23 03:08:21;;;;;;;5.32;5.00;;;20.80;63.60;;;;;;5028157;28;20282;-85
2022/08/23 03:10:49;;;;;;;6.53;5.68;;;20.80;63.30;;;;;;5035003;28;20205;-85
2022/08/23 03:13:15;;;;;;;6.45;5.95;;;20.90;63.60;;;;;;5028499;28;20200;-85
2022/08/23 03:15:42;;;;;;;6.15;5.65;;;20.80;63.80;;;;;;5030671;28;20196;-85
2022/08/23 03:18:09;;;;;;;6.30;5.80;;;20.90;63.50;;;;;;5032169;28;20686;-85
2022/08/23 03:20:35;;;;;;;6.13;5.63;;;21.00;64.10;;;;;;5026953;28;20212;-87
2022/08/23 03:23:01;;;;;;;6.22;5.80;;;21.00;63.30;;;;;;5028908;28;20251;-85
2022/08/23 03:25:27;;;;;;;6.55;5.95;;;21.00;62.90;;;;;;5035577;28;20195;-85
2022/08/23 03:27:53;;;;;;;5.97;5.40;;;21.00;62.90;;;;;;5029026;28;20218;-85
2022/08/23 03:30:19;;;;;;;6.70;6.20;;;21.10;62.50;;;;;;5029990;28;20212;-84
2022/08/23 03:32:44;;;;;;;6.25;5.85;;;21.10;62.20;;;;;;5032596;28;20661;-84
2022/08/23 03:35:10;;;;;;;8.80;7.90;;;21.10;62.00;;;;;;5027359;28;20560;-87
2022/08/23 03:37:36;;;;;;;6.00;5.50;;;21.10;62.10;;;;;;5026045;28;20546;-85
2022/08/23 03:40:04;;;;;;;6.30;5.70;;;21.20;62.00;;;;;;5029341;28;20756;-84
2022/08/23 03:42:30;;;;;;;5.95;5.47;;;21.10;62.00;;;;;;5029213;28;20188;-85
2022/08/23 03:44:55;;;;;;;5.95;5.43;;;21.10;61.90;;;;;;5029443;28;20420;-85
2022/08/23 03:47:21;;;;;;;6.85;6.03;;;21.00;62.40;;;;;;5032249;28;20207;-86
2022/08/23 03:49:47;;;;;;;6.00;5.60;;;20.90;62.20;;;;;;5029226;28;20228;-85
2022/08/23 03:52:13;;;;;;;6.03;5.40;;;20.90;62.10;;;;;;5028650;28;20204;-85
2022/08/23 03:54:38;;;;;;;6.43;5.90;;;20.90;62.20;;;;;;5028238;28;20248;-86
2022/08/23 03:57:08;;;;;;;6.45;5.95;;;20.80;62.90;;;;;;5030830;28;20203;-86
2022/08/23 03:59:36;;;;;;;6.60;6.13;;;20.80;63.40;;;;;;5024975;28;20181;-86
2022/08/23 04:02:02;;;;;;;6.20;5.70;;;20.70;64.50;;;;;;5030102;28;20526;-85
2022/08/23 04:04:28;;;;;;;6.30;5.82;;;20.60;64.80;;;;;;5025074;28;20184;-85
2022/08/23 04:06:55;;;;;;;6.78;6.13;;;20.60;64.70;;;;;;5028014;28;20196;-85
2022/08/23 04:09:21;;;;;;;6.43;5.55;;;20.60;64.70;;;;;;5031182;28;20238;-85
2022/08/23 04:11:47;;;;;;;6.72;6.20;;;20.70;63.90;;;;;;5030633;28;20195;-85
2022/08/23 04:14:13;;;;;;;6.40;5.90;;;20.60;63.70;;;;;;5029846;28;20183;-84
2022/08/23 04:16:39;;;;;;;6.07;5.57;;;20.60;64.60;;;;;;5026906;28;20264;-87
2022/08/23 04:19:14;;;;;;;6.30;5.78;;;20.60;64.50;;;;;;5028452;28;20670;-85
2022/08/23 04:21:47;;;;;;;6.47;5.90;;;20.60;64.60;;;;;;5027352;28;20207;-85
2022/08/23 04:24:13;;;;;;;6.50;6.00;;;20.60;64.30;;;;;;5028711;28;20210;-84
2022/08/23 04:26:40;;;;;;;6.65;5.60;;;20.40;64.30;;;;;;5028226;28;20189;-84
2022/08/23 04:29:06;;;;;;;5.68;5.18;;;20.50;64.60;;;;;;5028627;28;20215;-84
2022/08/23 04:31:32;;;;;;;6.05;5.45;;;20.40;64.80;;;;;;5030048;28;20237;-86
2022/08/23 04:33:58;;;;;;;8.52;6.10;;;20.30;65.10;;;;;;5036173;28;20598;-84
2022/08/23 04:36:24;;;;;;;8.88;6.40;;;20.20;65.60;;;;;;5029598;28;20183;-84
2022/08/23 04:38:50;;;;;;;10.48;5.55;;;20.20;65.90;;;;;;5029970;28;20198;-85
2022/08/23 04:44:02;;;;;;;7.90;5.70;;;20.10;66.20;;;;;;5028407;28;20664;-85
2022/08/23 04:46:28;;;;;;;10.90;5.55;;;20.20;65.80;;;;;;5027003;28;20514;-85
2022/08/23 04:48:53;;;;;;;6.55;5.68;;;20.20;65.70;;;;;;5028368;28;20231;-85
2022/08/23 04:51:21;;;;;;;14.98;6.50;;;20.30;65.70;;;;;;5024492;28;20226;-85
2022/08/23 04:53:47;;;;;;;18.77;6.57;;;20.30;65.20;;;;;;5026654;28;20206;-85
2022/08/23 04:56:12;;;;;;;11.27;6.13;;;20.30;65.10;;;;;;5027060;28;20189;-85
2022/08/23 04:58:38;;;;;;;7.53;5.70;;;20.30;64.80;;;;;;5032060;28;20197;-85
2022/08/23 05:01:06;;;;;;;9.27;6.57;;;20.30;65.30;;;;;;5027569;28;20207;-85
2022/08/23 05:03:33;;;;;;;7.07;5.88;;;20.20;66.00;;;;;;5027785;28;20213;-84
2022/08/23 05:06:00;;;;;;;9.88;6.10;;;20.10;65.90;;;;;;5023694;28;20214;-85
2022/08/23 05:08:26;;;;;;;8.18;6.22;;;20.20;65.90;;;;;;5025780;28;20205;-85
2022/08/23 05:10:52;;;;;;;9.75;6.30;;;20.20;65.90;;;;;;5028578;28;20216;-85
2022/08/23 05:13:18;;;;;;;8.93;6.05;;;20.20;66.50;;;;;;5029311;28;20626;-85
2022/08/23 05:15:44;;;;;;;12.35;6.20;;;20.20;66.50;;;;;;5026621;28;20185;-85
2022/08/23 05:18:10;;;;;;;8.70;6.53;;;20.30;66.50;;;;;;5031932;28;20249;-85
2022/08/23 05:20:36;;;;;;;8.10;6.22;;;20.30;66.50;;;;;;5031530;28;20286;-85
2022/08/23 05:23:02;;;;;;;7.00;6.30;;;20.30;66.60;;;;;;5029121;28;20215;-85
2022/08/23 05:25:48;;;;;;;7.45;6.55;;;20.40;66.50;;;;;;5034859;28;20222;-85
2022/08/23 05:28:15;;;;;;;7.00;6.35;;;20.40;66.30;;;;;;5032871;28;20706;-85
2022/08/23 05:30:41;;;;;;;6.72;6.18;;;20.50;66.40;;;;;;5035731;28;20732;-85
2022/08/23 05:33:06;;;;;;;8.80;6.47;;;20.50;67.10;;;;;;5041330;28;20267;-85
2022/08/23 05:35:32;;;;;;;7.72;6.90;;;20.60;67.60;;;;;;5040842;28;20219;-85
2022/08/23 05:37:59;;;;;;;7.18;6.47;;;20.50;66.90;;;;;;5040776;28;20615;-84
2022/08/23 05:40:25;;;;;;;7.80;6.30;;;20.40;67.40;;;;;;5039674;28;20205;-85
2022/08/23 05:42:51;;;;;;;6.95;6.35;;;20.20;68.90;;;;;;5039460;28;20217;-84
2022/08/23 05:45:17;;;;;;;6.38;5.82;;;20.20;69.60;;;;;;5038698;28;20181;-84
2022/08/23 05:47:43;;;;;;;7.20;6.60;;;20.10;70.40;;;;;;5040104;28;20393;-84
2022/08/23 05:50:09;;;;;;;7.07;6.43;;;20.10;70.00;;;;;;5038293;28;20218;-84
2022/08/23 05:52:35;;;;;;;6.13;5.63;;;20.40;69.20;;;;;;5036649;28;20197;-85
2022/08/23 05:55:01;;;;;;;6.68;6.07;;;20.40;68.90;;;;;;5037705;28;20194;-84
2022/08/23 05:57:27;;;;;;;6.38;5.85;;;20.50;69.10;;;;;;5037416;28;20195;-84
2022/08/23 05:59:52;;;;;;;7.03;6.43;;;20.60;68.90;;;;;;5034592;28;20241;-84
2022/08/23 06:02:18;;;;;;;6.95;6.28;;;20.70;68.30;;;;;;5037792;28;20213;-85
2022/08/23 06:04:44;;;;;;;6.88;6.20;;;20.70;69.50;;;;;;5030696;28;20199;-85
2022/08/23 06:07:10;;;;;;;6.60;6.10;;;20.70;69.50;;;;;;5036777;28;20193;-84
2022/08/23 06:09:36;;;;;;;6.80;6.25;;;20.70;70.50;;;;;;5038183;28;20199;-84
2022/08/23 06:12:02;;;;;;;7.30;6.55;;;20.70;70.00;;;;;;5040680;28;20252;-84
2022/08/23 06:14:27;;;;;;;6.82;6.22;;;20.80;69.00;;;;;;5035367;28;20195;-84
2022/08/23 06:16:53;;;;;;;6.65;6.15;;;20.80;67.70;;;;;;5039335;28;20189;-84
2022/08/23 06:19:19;;;;;;;7.35;6.60;;;20.90;66.80;;;;;;5039977;28;20204;-84
2022/08/23 06:21:45;;;;;;;7.60;6.90;;;20.90;65.90;;;;;;5036578;28;20223;-84
2022/08/23 06:24:11;;;;;;;8.48;7.68;;;21.00;65.80;;;;;;5039679;28;20371;-84
2022/08/23 06:26:41;;;;;;;7.70;7.00;;;21.00;66.50;;;;;;5039412;28;20185;-84
2022/08/23 06:29:10;;;;;;;7.30;6.70;;;21.00;65.90;;;;;;5037570;28;20319;-85
2022/08/23 06:31:46;;;;;;;8.70;7.85;;;21.00;65.90;;;;;;5041329;28;20201;-85
2022/08/23 06:34:17;;;;;;;8.45;7.75;;;21.00;66.40;;;;;;5040534;28;20184;-84
2022/08/23 06:36:45;;;;;;;7.28;6.78;;;21.00;66.10;;;;;;5040794;28;20169;-86
2022/08/23 06:39:12;;;;;;;8.20;7.10;;;21.10;65.20;;;;;;5043751;28;20188;-85
2022/08/23 06:41:38;;;;;;;8.57;7.63;;;21.10;65.20;;;;;;5044113;28;20226;-84
2022/08/23 06:44:05;;;;;;;7.32;6.72;;;21.10;64.90;;;;;;5039455;28;20195;-84
2022/08/23 06:46:31;;;;;;;8.18;6.68;;;21.20;64.40;;;;;;5039072;28;20187;-84
2022/08/23 06:48:59;;;;;;;8.90;7.38;;;21.20;65.10;;;;;;5035344;28;20211;-85
2022/08/23 06:51:27;;;;;;;7.60;7.00;;;21.20;65.30;;;;;;5034248;28;20217;-84
2022/08/23 06:53:55;;;;;;;8.57;6.80;;;21.30;64.60;;;;;;5037980;28;20565;-84
2022/08/23 06:56:23;;;;;;;6.93;6.32;;;21.40;64.30;;;;;;5037087;28;20207;-84
2022/08/23 06:58:49;;;;;;;8.05;7.28;;;21.50;63.90;;;;;;5038449;28;20260;-84
2022/08/23 07:01:35;;;;;;;8.50;7.65;;;21.50;63.70;;;;;;5037284;28;20224;-85
2022/08/23 07:04:02;;;;;;;8.13;7.43;;;21.40;63.70;;;;;;5033528;28;20660;-84
2022/08/23 07:06:29;;;;;;;7.20;6.60;;;21.50;63.60;;;;;;5039454;28;20211;-86
2022/08/23 07:08:55;;;;;;;7.03;6.40;;;21.60;63.90;;;;;;5035409;28;20214;-85
2022/08/23 07:11:22;;;;;;;7.80;7.03;;;21.40;63.80;;;;;;5047494;28;20228;-85
2022/08/23 07:13:48;;;;;;;9.13;7.22;;;21.40;64.10;;;;;;5038190;28;20247;-85
2022/08/23 07:16:16;;;;;;;6.53;5.97;;;21.50;64.60;;;;;;5037873;28;20181;-85
2022/08/23 07:18:44;;;;;;;7.03;6.32;;;21.60;62.90;;;;;;5038080;28;20192;-85
2022/08/23 07:21:11;;;;;;;7.45;6.75;;;21.70;61.90;;;;;;5036686;28;20629;-85
2022/08/23 07:23:37;;;;;;;6.53;6.03;;;21.70;62.50;;;;;;5037621;28;20211;-84
2022/08/23 07:26:07;;;;;;;6.13;5.63;;;21.70;62.60;;;;;;5037215;28;20259;-85
2022/08/23 07:28:33;;;;;;;6.25;5.72;;;21.70;62.40;;;;;;5038834;28;20271;-86
2022/08/23 07:31:13;;;;;;;6.55;5.95;;;21.80;61.80;;;;;;5038170;28;20219;-85
2022/08/23 07:33:40;;;;;;;6.20;5.63;;;21.90;62.00;;;;;;5037991;28;20682;-84
2022/08/23 07:36:06;;;;;;;6.53;5.93;;;22.00;61.90;;;;;;5034215;28;20256;-85
2022/08/23 07:38:34;;;;;;;6.85;6.25;;;22.00;61.30;;;;;;5035876;28;20287;-85
2022/08/23 07:41:00;;;;;;;8.05;6.32;;;22.00;61.20;;;;;;5037033;28;20431;-85
2022/08/23 07:43:26;;;;;;;7.18;6.47;;;22.10;61.50;;;;;;5036602;28;20238;-85
2022/08/23 07:45:51;;;;;;;7.70;6.10;;;22.30;61.30;;;;;;5036088;28;20192;-85
2022/08/23 07:48:17;;;;;;;6.57;5.90;;;22.60;59.90;;;;;;5035608;28;20223;-85
2022/08/23 07:50:53;;;;;;;6.53;5.43;;;22.80;58.20;;;;;;5036524;28;20680;-86
2022/08/23 07:53:19;;;;;;;5.43;5.03;;;22.90;57.10;;;;;;5034616;28;20369;-85
2022/08/23 07:55:45;;;;;;;5.93;5.20;;;23.00;56.50;;;;;;5035360;28;20193;-85
2022/08/23 07:58:11;;;;;;;6.25;5.75;;;23.00;57.30;;;;;;5035586;28;20256;-84
2022/08/23 08:00:37;;;;;;;5.35;4.85;;;23.00;56.70;;;;;;5035348;28;20571;-85
2022/08/23 08:03:03;;;;;;;6.15;5.18;;;23.30;55.80;;;;;;5035167;28;20185;-85
2022/08/23 08:05:33;;;;;;;5.82;5.03;;;23.60;53.70;;;;;;5033000;28;20633;-85
2022/08/23 08:07:58;;;;;;;6.47;5.38;;;23.60;53.60;;;;;;5036020;28;20299;-85
2022/08/23 08:10:24;;;;;;;5.95;4.80;;;23.70;53.50;;;;;;5034578;28;20221;-86
2022/08/23 08:12:50;;;;;;;8.00;4.75;;;23.70;53.50;;;;;;5040055;28;20181;-85
2022/08/23 08:15:17;;;;;;;6.22;5.00;;;23.60;53.90;;;;;;5034762;28;20193;-85
2022/08/23 08:17:45;;;;;;;5.72;4.78;;;23.70;53.70;;;;;;5057037;28;20590;-85
2022/08/23 08:20:11;;;;;;;5.75;4.80;;;23.90;53.60;;;;;;5039934;28;20227;-85
2022/08/23 08:22:36;;;;;;;6.05;5.45;;;24.10;52.90;;;;;;5017491;28;20192;-85
2022/08/23 08:25:02;;;;;;;6.93;4.70;;;24.30;52.00;;;;;;5039500;28;20660;-85
2022/08/23 08:27:28;;;;;;;4.78;4.05;;;24.40;50.50;;;;;;5038329;28;20189;-84
2022/08/23 08:29:54;;;;;;;4.50;4.10;;;24.40;49.90;;;;;;5035488;28;20211;-86
2022/08/23 08:32:19;;;;;;;11.52;5.35;;;24.50;50.40;;;;;;5037444;28;20239;-84
2022/08/23 08:34:45;;;;;;;6.20;4.38;;;24.70;49.70;;;;;;5035678;28;20216;-85
2022/08/23 08:37:11;;;;;;;4.65;4.15;;;24.90;49.20;;;;;;5034529;28;20216;-85
2022/08/23 08:39:44;;;;;;;4.63;4.13;;;24.90;48.30;;;;;;5035031;28;20263;-85
2022/08/23 08:42:15;;;;;;;4.55;4.13;;;24.90;49.10;;;;;;5034697;28;20165;-85
2022/08/23 08:44:59;;;;;;;6.18;3.92;;;25.10;48.10;;;;;;5036643;28;20188;-85
2022/08/23 08:47:44;;;;;;;5.97;4.10;;;25.10;48.60;;;;;;5037979;28;20181;-85
2022/08/23 08:50:28;;;;;;;5.40;3.95;;;25.10;48.10;;;;;;5038421;28;20232;-85
2022/08/23 08:53:01;;;;;;;4.40;3.88;;;25.20;47.60;;;;;;5036925;28;20248;-85
2022/08/23 08:55:48;;;;;;;5.95;3.55;;;25.10;47.50;;;;;;5036104;28;20576;-85
2022/08/23 08:58:38;;;;;;;4.80;3.83;;;25.30;46.80;;;;;;5038222;28;20176;-85
2022/08/23 09:01:03;;;;;;;5.35;4.10;;;25.60;46.90;;;;;;5030934;28;20229;-85
2022/08/23 09:03:34;;;;;;;7.30;4.13;;;25.70;46.40;;;;;;5037391;28;20189;-85
2022/08/23 09:06:13;;;;;;;4.50;4.07;;;25.90;45.30;;;;;;5037876;28;20660;-85
2022/08/23 09:08:39;;;;;;;6.22;4.05;;;26.00;45.20;;;;;;5035847;28;20224;-85
2022/08/23 09:11:26;;;;;;;4.53;4.20;;;25.90;45.70;;;;;;5040755;28;20682;-86
2022/08/23 09:14:01;;;;;;;5.07;4.20;;;26.20;44.70;;;;;;5039786;28;20260;-85
2022/08/23 09:16:32;;;;;;;4.35;4.05;;;26.40;44.30;;;;;;5034359;28;20524;-84
2022/08/23 09:19:01;;;;;;;4.78;4.10;;;26.40;43.70;;;;;;5038270;28;20243;-85
2022/08/23 09:21:28;;;;;;;5.75;4.35;;;26.40;45.30;;;;;;5037082;28;20548;-85
2022/08/23 09:23:54;;;;;;;4.50;4.20;;;26.60;43.20;;;;;;5036973;28;20220;-85
2022/08/23 09:26:31;;;;;;;5.75;4.07;;;26.70;41.60;;;;;;5037220;28;20190;-85
2022/08/23 09:29:15;;;;;;;6.60;4.40;;;26.80;41.60;;;;;;5037191;28;20299;-86
2022/08/23 09:32:02;;;;;;;4.85;4.45;;;27.00;43.10;;;;;;5030406;28;20243;-85
2022/08/23 09:34:35;;;;;;;4.60;4.28;;;27.20;41.20;;;;;;5037517;28;20177;-85
2022/08/23 09:37:16;;;;;;;5.13;4.43;;;27.40;40.40;;;;;;5027723;28;20185;-84
2022/08/23 09:39:46;;;;;;;5.68;4.35;;;27.40;40.50;;;;;;5035853;28;20213;-85
2022/08/23 09:42:46;;;;;;;4.70;4.20;;;27.60;40.60;;;;;;5037694;28;20184;-84
2022/08/23 09:45:25;;;;;;;4.47;4.18;;;27.60;40.40;;;;;;5015261;28;20192;-85
2022/08/23 09:47:50;;;;;;;7.03;4.57;;;27.70;39.40;;;;;;5036281;28;20255;-85
2022/08/23 09:50:16;;;;;;;5.65;4.45;;;27.50;39.50;;;;;;5039279;28;20224;-85
2022/08/23 09:52:43;;;;;;;4.93;4.25;;;27.80;38.80;;;;;;5037178;28;20788;-85
2022/08/23 09:55:40;;;;;;;5.68;4.25;;;27.90;38.10;;;;;;5037347;28;20189;-84
2022/08/23 09:58:35;;;;;;;5.85;4.80;;;28.10;38.50;;;;;;5022184;28;20298;-85
2022/08/23 10:01:21;;;;;;;8.98;4.63;;;28.40;37.70;;;;;;5034427;28;20208;-84
2022/08/23 10:04:03;;;;;;;5.07;4.63;;;28.40;37.20;;;;;;5033305;28;20181;-84
2022/08/23 10:06:33;;;;;;;5.78;4.57;;;28.50;37.20;;;;;;5031558;28;20185;-85
2022/08/23 10:09:03;;;;;;;5.45;4.95;;;28.60;37.10;;;;;;5035830;28;20228;-86
2022/08/23 10:11:34;;;;;;;5.47;4.53;;;28.40;37.60;;;;;;5034375;28;20761;-85
2022/08/23 10:14:00;;;;;;;5.28;4.72;;;28.60;37.10;;;;;;5034734;28;20181;-85
2022/08/23 10:16:31;;;;;;;5.88;4.80;;;29.10;37.10;;;;;;5034960;28;20195;-85
2022/08/23 10:19:00;;;;;;;5.60;4.97;;;29.40;36.00;;;;;;5036813;28;20181;-85
2022/08/23 10:21:36;;;;;;;4.85;4.50;;;29.60;35.20;;;;;;5034244;28;20212;-85
2022/08/23 10:24:12;;;;;;;5.03;4.63;;;29.50;35.40;;;;;;5034824;28;20188;-85
2022/08/23 10:26:49;;;;;;;5.53;5.07;;;29.60;35.00;;;;;;5037843;28;20200;-85
2022/08/23 10:29:36;;;;;;;5.03;4.63;;;29.70;35.00;;;;;;5037328;28;20193;-85
2022/08/23 10:32:22;;;;;;;5.97;5.35;;;29.60;34.60;;;;;;5038225;28;20181;-85
2022/08/23 10:35:24;;;;;;;5.90;5.10;;;30.00;34.50;;;;;;5037063;28;20810;-85
2022/08/23 10:37:52;;;;;;;7.15;5.40;;;30.50;33.10;;;;;;5034685;28;20259;-84
2022/08/23 10:40:27;;;;;;;6.00;5.45;;;30.70;32.10;;;;;;5039917;28;20209;-85
2022/08/23 10:43:03;;;;;;;6.20;5.60;;;30.80;32.60;;;;;;5040685;28;20223;-85
2022/08/23 10:45:34;;;;;;;5.85;5.35;;;30.80;32.10;;;;;;5039638;28;20185;-84
2022/08/23 10:48:00;;;;;;;6.78;5.60;;;31.10;31.80;;;;;;5036495;28;20212;-84
2022/08/23 10:50:31;;;;;;;5.57;5.05;;;31.30;31.60;;;;;;5036359;28;20374;-85
2022/08/23 10:53:07;;;;;;;5.95;5.03;;;31.40;31.60;;;;;;5035149;28;20216;-84
2022/08/23 10:55:53;;;;;;;5.78;5.30;;;31.60;30.90;;;;;;5035271;28;20177;-84
2022/08/23 10:58:25;;;;;;;5.82;5.35;;;31.90;30.60;;;;;;5032450;28;20262;-84
2022/08/23 11:00:53;;;;;;;5.78;5.28;;;31.80;30.40;;;;;;5035672;28;20668;-84
2022/08/23 11:03:32;;;;;;;8.38;5.18;;;31.90;30.00;;;;;;5031088;28;20671;-85
2022/08/23 11:06:24;;;;;;;6.55;5.32;;;32.10;30.20;;;;;;5036319;28;20184;-85
2022/08/23 11:09:03;;;;;;;5.75;5.25;;;32.30;29.60;;;;;;5033724;28;20568;-84
2022/08/23 11:11:43;;;;;;;6.22;5.70;;;32.60;29.10;;;;;;5034390;28;20231;-85
2022/08/23 11:14:25;;;;;;;5.90;5.40;;;32.10;29.60;;;;;;5035350;28;20211;-86
2022/08/23 11:16:58;;;;;;;5.93;5.50;;;32.10;29.30;;;;;;5033295;28;20236;-84
2022/08/23 11:19:49;;;;;;;6.47;5.97;;;32.00;29.70;;;;;;5037034;28;20196;-84
2022/08/23 11:22:26;;;;;;;5.85;5.45;;;32.30;29.30;;;;;;5035571;28;20181;-85
2022/08/23 11:25:25;;;;;;;5.80;5.20;;;32.70;28.30;;;;;;5037265;28;20188;-86
2022/08/23 11:28:29;;;;;;;5.93;5.43;;;33.20;28.20;;;;;;5035512;28;20269;-86
2022/08/23 11:31:07;;;;;;;6.05;5.75;;;33.30;27.80;;;;;;5034427;28;20204;-86
2022/08/23 11:33:44;;;;;;;6.25;5.68;;;33.70;27.80;;;;;;5037153;28;20215;-86
2022/08/23 11:36:22;;;;;;;6.20;5.60;;;33.80;28.30;;;;;;5034037;28;20181;-85
2022/08/23 11:38:48;;;;;;;7.18;6.07;;;34.10;28.40;;;;;;5036491;28;20192;-86
2022/08/23 11:41:27;;;;;;;5.93;5.43;;;33.90;28.00;;;;;;5035532;28;20365;-86
2022/08/23 11:43:56;;;;;;;6.00;5.60;;;34.20;28.00;;;;;;5034771;28;20656;-86
2022/08/23 11:46:24;;;;;;;6.25;5.75;;;34.50;27.30;;;;;;5035207;28;20209;-84
2022/08/23 11:49:27;;;;;;;6.47;6.00;;;34.30;27.30;;;;;;5036156;28;20215;-84
2022/08/23 11:51:55;;;;;;;6.13;5.63;;;34.40;27.70;;;;;;5034935;28;20258;-84
2022/08/23 11:54:38;;;;;;;7.00;6.38;;;34.80;27.00;;;;;;5034332;28;20211;-84
2022/08/23 11:57:28;;;;;;;6.78;6.18;;;34.80;26.80;;;;;;5031703;28;20181;-85
2022/08/23 12:00:32;;;;;;;6.78;6.28;;;35.10;27.00;;;;;;5029380;28;20695;-85
2022/08/23 12:03:05;;;;;;;6.65;6.15;;;35.00;27.10;;;;;;5033545;28;20180;-85
2022/08/23 12:05:33;;;;;;;6.80;6.20;;;34.80;26.40;;;;;;5032406;28;20188;-86
2022/08/23 12:08:02;;;;;;;6.15;5.65;;;35.00;25.90;;;;;;5036686;28;20232;-86
2022/08/23 12:10:39;;;;;;;6.50;6.00;;;35.10;25.90;;;;;;5050406;28;20197;-86
2022/08/23 12:13:20;;;;;;;7.40;6.70;;;35.30;25.40;;;;;;5035037;28;20173;-85
2022/08/23 12:16:18;;;;;;;5.88;5.47;;;35.20;25.20;;;;;;5033582;28;20189;-85
2022/08/23 12:18:53;;;;;;;6.75;6.13;;;35.50;24.50;;;;;;5034462;28;20590;-85
2022/08/23 12:21:18;;;;;;;6.15;5.68;;;35.30;24.60;;;;;;5035905;28;20200;-85
2022/08/23 12:23:49;;;;;;;6.20;5.80;;;35.10;25.10;;;;;;5034116;28;20191;-85
2022/08/23 12:26:41;;;;;;;6.10;5.60;;;35.00;25.40;;;;;;5036052;28;20660;-85
2022/08/23 12:29:41;;;;;;;5.50;5.20;;;35.30;24.70;;;;;;5035067;28;20229;-85
2022/08/23 12:32:13;;;;;;;5.68;5.28;;;35.20;23.90;;;;;;5032748;28;20252;-85
2022/08/23 12:34:38;;;;;;;6.18;5.78;;;35.50;23.80;;;;;;5032665;28;20180;-85
2022/08/23 12:37:29;;;;;;;5.93;5.63;;;35.80;23.30;;;;;;5035681;28;20191;-85
2022/08/23 12:39:59;;;;;;;6.20;5.78;;;36.00;22.60;;;;;;5031278;28;20204;-85
2022/08/23 12:42:29;;;;;;;6.32;5.78;;;36.20;22.50;;;;;;5034811;28;20273;-85
2022/08/23 12:45:05;;;;;;;6.50;6.10;;;36.30;21.90;;;;;;5014426;28;20608;-85
2022/08/23 12:47:31;;;;;;;6.22;5.85;;;35.90;22.40;;;;;;5034564;28;20195;-85
2022/08/23 12:50:05;;;;;;;6.32;5.82;;;35.80;22.50;;;;;;5035261;28;20220;-86
2022/08/23 12:52:33;;;;;;;6.00;5.50;;;36.20;22.20;;;;;;5033018;28;20188;-85
2022/08/23 12:55:00;;;;;;;6.70;6.20;;;36.70;21.40;;;;;;5034189;28;20192;-85
2022/08/23 12:57:36;;;;;;;6.35;5.85;;;36.60;21.20;;;;;;5029196;28;20192;-85
2022/08/23 13:00:13;;;;;;;6.57;5.93;;;37.10;21.30;;;;;;5032171;28;20200;-84
2022/08/23 13:02:45;;;;;;;6.47;6.03;;;37.10;20.80;;;;;;5032541;28;20610;-85
2022/08/23 13:05:39;;;;;;;6.43;6.13;;;37.50;21.20;;;;;;5029270;28;20180;-85
2022/08/23 13:08:10;;;;;;;7.40;6.90;;;37.80;20.30;;;;;;5031141;28;20519;-84
2022/08/23 13:10:38;;;;;;;6.70;6.20;;;37.80;20.40;;;;;;5035516;28;20204;-84
2022/08/23 13:13:06;;;;;;;6.55;6.15;;;37.80;20.00;;;;;;5048583;28;20276;-85